Time;durP1;ratioP1;P1;durP2;ratioP2;P2;SDS_P1;SDS_P2;PMS_P1;PMS_P2;Temp;Humidity;BMP_temperature;BMP_pressure;BME280_temperature;BME280_humidity;BME280_pressure;Samples;Min_cycle;Max_cycle;Signal;HPM_P1;HPM_P2
2023/08/09 00:01:57;;;;;;;1.80;1.10;;;;;;;14.09;70.31;96642.63;108644;1270;22634;-78
2023/08/09 00:04:28;;;;;;;2.80;1.50;;;;;;;14.07;70.39;96643.50;108752;1273;22527;-78
2023/08/09 00:06:59;;;;;;;1.60;1.20;;;;;;;14.05;70.65;96646.14;108684;1265;25286;-79
2023/08/09 00:09:31;;;;;;;3.80;1.90;;;;;;;14.00;70.70;96638.79;108730;1273;25137;-78
2023/08/09 00:12:05;;;;;;;1.60;1.30;;;;;;;13.94;70.91;96633.54;108700;1273;22541;-78
2023/08/09 00:14:36;;;;;;;2.30;1.40;;;;;;;13.90;71.06;96632.50;108677;1273;22557;-79
2023/08/09 00:17:07;;;;;;;2.00;1.20;;;;;;;13.86;71.25;96633.54;108702;1273;22567;-78
2023/08/09 00:19:38;;;;;;;2.30;1.50;;;;;;;13.82;71.50;96631.25;108737;1267;24168;-79
2023/08/09 00:22:09;;;;;;;2.10;1.40;;;;;;;13.78;71.56;96634.39;108721;1273;22504;-79
2023/08/09 00:24:41;;;;;;;1.50;1.20;;;;;;;13.76;71.88;96632.64;108727;1273;22683;-79
2023/08/09 00:27:11;;;;;;;1.50;1.00;;;;;;;13.74;71.98;96628.52;108678;1273;22539;-78
2023/08/09 00:29:42;;;;;;;2.40;1.20;;;;;;;13.73;72.14;96628.91;108691;1273;22532;-79
2023/08/09 00:32:13;;;;;;;2.40;1.50;;;;;;;13.72;72.34;96628.45;108757;1267;22530;-79
2023/08/09 00:34:44;;;;;;;2.70;1.30;;;;;;;13.73;72.50;96626.99;108722;1266;22517;-78
2023/08/09 00:37:15;;;;;;;2.10;1.20;;;;;;;13.73;72.58;96625.56;108681;1269;22523;-78
2023/08/09 00:39:46;;;;;;;1.90;1.30;;;;;;;13.73;72.81;96619.59;108728;1251;22530;-79
2023/08/09 00:42:17;;;;;;;2.20;1.40;;;;;;;13.74;72.88;96617.70;108679;1267;25166;-78
2023/08/09 00:44:48;;;;;;;1.70;1.40;;;;;;;13.73;73.07;96614.47;108669;1273;25334;-78
2023/08/09 00:47:21;;;;;;;1.50;1.20;;;;;;;13.73;73.07;96617.04;108670;1273;22508;-79
2023/08/09 00:49:52;;;;;;;2.20;1.50;;;;;;;13.69;73.22;96619.73;108744;1269;22982;-79
2023/08/09 00:52:23;;;;;;;2.20;1.20;;;;;;;13.63;73.36;96615.36;108705;1269;22518;-78
2023/08/09 00:54:56;;;;;;;1.40;1.10;;;;;;;13.57;73.55;96616.60;108752;1273;23220;-78
2023/08/09 00:57:28;;;;;;;2.20;1.40;;;;;;;13.52;73.46;96613.35;108681;1267;25370;-78
2023/08/09 00:59:59;;;;;;;2.50;1.50;;;;;;;13.49;73.50;96612.79;108706;1273;22622;-78
2023/08/09 01:02:30;;;;;;;3.10;1.40;;;;;;;13.49;73.60;96614.02;108696;1266;22511;-78
2023/08/09 01:05:04;;;;;;;2.60;1.50;;;;;;;13.50;73.61;96608.57;108741;1273;22505;-78
2023/08/09 01:07:44;;;;;;;2.90;1.40;;;;;;;13.51;73.63;96609.37;108675;1273;22521;-78
2023/08/09 01:10:21;;;;;;;2.00;1.60;;;;;;;13.52;73.63;96607.06;108681;1273;22515;-78
2023/08/09 01:12:57;;;;;;;2.20;1.60;;;;;;;13.54;73.78;96610.86;108673;1271;24279;-78
2023/08/09 01:15:29;;;;;;;2.50;1.90;;;;;;;13.55;73.72;96608.77;108665;1270;22591;-78
2023/08/09 01:18:01;;;;;;;1.80;1.50;;;;;;;13.53;73.65;96609.60;108702;1273;22509;-78
2023/08/09 01:20:36;;;;;;;1.80;1.50;;;;;;;13.52;73.74;96607.39;108728;1273;23240;-78
2023/08/09 01:23:16;;;;;;;1.80;1.50;;;;;;;13.51;73.78;96613.58;108707;1265;22511;-78
2023/08/09 01:25:48;;;;;;;2.60;1.50;;;;;;;13.51;73.94;96616.14;108698;1273;22624;-79
2023/08/09 01:28:22;;;;;;;2.50;1.50;;;;;;;13.50;73.96;96614.49;108622;1268;22511;-78
2023/08/09 01:30:53;;;;;;;1.90;1.40;;;;;;;13.49;73.92;96617.44;108734;1273;22998;-78
2023/08/09 01:33:24;;;;;;;1.50;1.20;;;;;;;13.50;74.09;96616.09;108721;1273;22510;-79
2023/08/09 01:36:01;;;;;;;2.50;1.40;;;;;;;13.50;74.09;96613.69;108709;1273;24212;-78
2023/08/09 01:38:43;;;;;;;1.80;1.30;;;;;;;13.51;74.15;96613.84;108709;1273;22665;-78
2023/08/09 01:41:16;;;;;;;2.80;1.60;;;;;;;13.53;74.18;96615.40;108751;1273;22515;-78
2023/08/09 01:43:51;;;;;;;2.80;1.70;;;;;;;13.56;74.20;96616.20;108709;1273;22527;-78
2023/08/09 01:46:23;;;;;;;1.80;1.50;;;;;;;13.57;74.19;96619.10;108706;1273;22512;-78
2023/08/09 01:49:07;;;;;;;2.20;1.50;;;;;;;13.59;74.29;96618.42;108716;1273;24133;-79
2023/08/09 01:51:41;;;;;;;1.60;1.20;;;;;;;13.60;74.33;96617.48;108707;1272;22518;-79
2023/08/09 01:54:12;;;;;;;2.50;1.70;;;;;;;13.61;74.30;96620.23;108690;1273;22512;-78
2023/08/09 01:56:44;;;;;;;3.00;1.30;;;;;;;13.64;74.44;96631.95;108728;1272;22529;-78
2023/08/09 01:59:15;;;;;;;2.10;1.60;;;;;;;13.65;74.49;96629.44;108709;1260;22549;-78
2023/08/09 02:01:46;;;;;;;1.90;1.70;;;;;;;13.68;74.60;96633.92;108725;1273;25303;-78
2023/08/09 02:04:17;;;;;;;3.20;1.30;;;;;;;13.71;74.58;96632.10;108676;1271;24260;-78
2023/08/09 02:06:50;;;;;;;2.20;1.40;;;;;;;13.73;74.67;96635.47;108714;1269;26381;-78
2023/08/09 02:09:21;;;;;;;1.80;1.60;;;;;;;13.74;74.63;96639.74;108660;1273;24246;-78
2023/08/09 02:11:53;;;;;;;4.20;1.80;;;;;;;13.75;74.73;96641.66;108714;1273;22508;-78
2023/08/09 02:14:23;;;;;;;2.20;1.70;;;;;;;13.75;74.83;96646.23;108656;1273;22542;-78
2023/08/09 02:16:54;;;;;;;2.60;1.40;;;;;;;13.75;74.91;96656.14;108711;1273;26466;-78
2023/08/09 02:19:26;;;;;;;3.10;1.80;;;;;;;13.74;75.04;96656.70;108681;1273;25338;-78
2023/08/09 02:21:56;;;;;;;2.80;1.60;;;;;;;13.74;75.29;96651.21;108708;1273;22530;-78
2023/08/09 02:24:28;;;;;;;2.50;1.20;;;;;;;13.69;75.64;96641.30;108702;1267;22511;-79
2023/08/09 02:26:58;;;;;;;2.80;1.50;;;;;;;13.63;76.03;96639.27;108681;1273;22636;-79
2023/08/09 02:29:31;;;;;;;3.50;1.60;;;;;;;13.55;76.42;96637.35;108709;1267;22698;-79
2023/08/09 02:32:02;;;;;;;2.10;1.50;;;;;;;13.50;76.66;96633.30;108713;1269;22515;-79
2023/08/09 02:34:32;;;;;;;2.60;1.20;;;;;;;13.41;77.05;96628.95;108688;1272;22538;-79
2023/08/09 02:37:06;;;;;;;2.90;1.60;;;;;;;13.33;77.19;96627.27;108649;1273;22539;-79
2023/08/09 02:39:37;;;;;;;2.60;1.70;;;;;;;13.29;77.69;96623.05;108737;1273;25568;-79
2023/08/09 02:42:08;;;;;;;1.60;1.40;;;;;;;13.23;77.95;96627.37;108686;1273;22518;-79
2023/08/09 02:44:40;;;;;;;1.80;1.50;;;;;;;13.18;78.46;96632.87;108746;1273;24270;-79
2023/08/09 02:47:11;;;;;;;2.70;1.50;;;;;;;13.16;78.71;96633.48;108688;1267;25153;-79
2023/08/09 02:49:45;;;;;;;2.00;1.70;;;;;;;13.14;78.96;96633.09;108713;1273;24240;-78
2023/08/09 02:52:16;;;;;;;2.80;1.50;;;;;;;13.14;79.22;96624.91;108698;1273;22519;-78
2023/08/09 02:54:47;;;;;;;1.90;1.60;;;;;;;13.15;79.27;96630.59;108688;1273;24289;-78
2023/08/09 02:57:18;;;;;;;1.50;1.40;;;;;;;13.14;79.53;96634.96;108667;1273;22511;-79
2023/08/09 02:59:49;;;;;;;2.10;1.40;;;;;;;13.12;79.62;96634.09;108660;1273;25077;-78
2023/08/09 03:02:20;;;;;;;3.60;1.80;;;;;;;13.12;79.75;96637.41;108725;1273;25408;-78
2023/08/09 03:04:51;;;;;;;2.60;1.60;;;;;;;13.11;79.92;96635.02;108688;1273;22635;-78
2023/08/09 03:07:22;;;;;;;3.40;1.90;;;;;;;13.10;80.07;96632.86;108707;1273;22507;-78
2023/08/09 03:09:53;;;;;;;2.80;1.50;;;;;;;13.09;80.35;96633.34;108704;1273;22523;-78
2023/08/09 03:12:24;;;;;;;2.10;1.50;;;;;;;13.08;80.52;96631.55;108694;1273;22530;-78
2023/08/09 03:14:55;;;;;;;2.10;1.60;;;;;;;13.09;80.76;96633.87;108700;1251;22547;-78
2023/08/09 03:17:26;;;;;;;1.60;1.50;;;;;;;13.09;80.90;96632.11;108682;1273;22566;-78
2023/08/09 03:20:02;;;;;;;1.90;1.40;;;;;;;13.10;81.00;96628.29;108733;1273;22547;-79
2023/08/09 03:22:33;;;;;;;2.00;1.30;;;;;;;13.11;81.23;96626.88;108689;1273;22592;-78
2023/08/09 03:25:05;;;;;;;2.60;1.40;;;;;;;13.12;81.19;96627.92;108717;1272;22526;-78
2023/08/09 03:27:36;;;;;;;2.10;1.60;;;;;;;13.15;81.32;96632.86;108678;1267;22529;-78
2023/08/09 03:30:11;;;;;;;2.80;1.60;;;;;;;13.18;81.22;96636.88;108673;1273;22543;-78
2023/08/09 03:32:41;;;;;;;2.20;1.30;;;;;;;13.18;81.31;96636.44;108761;1273;24431;-78
2023/08/09 03:35:14;;;;;;;2.00;1.50;;;;;;;13.20;81.44;96633.49;108735;1273;26581;-78
2023/08/09 03:37:45;;;;;;;1.60;1.30;;;;;;;13.23;81.55;96629.35;108680;1273;22508;-78
2023/08/09 03:40:17;;;;;;;1.90;1.60;;;;;;;13.26;81.56;96634.99;108705;1273;25386;-78
2023/08/09 03:42:49;;;;;;;2.00;1.60;;;;;;;13.27;81.68;96635.02;108721;1273;22518;-78
2023/08/09 03:45:22;;;;;;;2.40;1.60;;;;;;;13.29;81.77;96636.25;108724;1273;26433;-78
2023/08/09 03:47:54;;;;;;;2.30;1.70;;;;;;;13.32;81.77;96637.37;108657;1270;23946;-78
2023/08/09 03:50:25;;;;;;;2.00;1.60;;;;;;;13.35;81.84;96635.66;108720;1273;22516;-78
2023/08/09 03:52:56;;;;;;;1.50;1.20;;;;;;;13.38;81.78;96638.22;108682;1273;22543;-78
2023/08/09 03:55:30;;;;;;;2.40;1.40;;;;;;;13.41;81.80;96635.84;108642;1269;22519;-78
2023/08/09 03:58:01;;;;;;;1.80;1.20;;;;;;;13.44;81.87;96630.98;108678;1273;24665;-78
2023/08/09 04:00:32;;;;;;;2.70;1.80;;;;;;;13.45;81.76;96628.02;108671;1273;22522;-79
2023/08/09 04:03:04;;;;;;;2.60;1.60;;;;;;;13.47;81.79;96633.56;108707;1273;22646;-78
2023/08/09 04:05:35;;;;;;;2.10;1.70;;;;;;;13.49;81.73;96633.56;108716;1267;22526;-78
2023/08/09 04:08:07;;;;;;;2.40;1.40;;;;;;;13.51;81.65;96635.05;108668;1271;22547;-78
2023/08/09 04:10:38;;;;;;;1.90;1.60;;;;;;;13.52;81.73;96640.99;108699;1273;22635;-78
2023/08/09 04:13:09;;;;;;;2.80;1.60;;;;;;;13.53;81.74;96644.13;108674;1270;22572;-78
2023/08/09 04:15:40;;;;;;;2.40;1.70;;;;;;;13.52;81.75;96640.36;108707;1273;22529;-78
2023/08/09 04:18:14;;;;;;;2.10;1.70;;;;;;;13.52;81.78;96641.65;108660;1270;22515;-78
2023/08/09 04:20:46;;;;;;;2.30;1.40;;;;;;;13.52;81.86;96639.77;108720;1273;25363;-79
2023/08/09 04:23:17;;;;;;;3.60;2.10;;;;;;;13.55;81.87;96642.02;108720;1257;22527;-78
2023/08/09 04:25:49;;;;;;;2.30;1.70;;;;;;;13.58;81.77;96643.33;108708;1273;22570;-78
2023/08/09 04:28:19;;;;;;;1.60;1.20;;;;;;;13.60;81.74;96646.27;108662;1269;22541;-78
2023/08/09 04:30:50;;;;;;;2.90;1.80;;;;;;;13.61;81.66;96646.46;108715;1273;23815;-78
2023/08/09 04:33:24;;;;;;;2.60;1.80;;;;;;;13.60;81.72;96642.26;108700;1273;22518;-78
2023/08/09 04:35:55;;;;;;;2.80;1.80;;;;;;;13.59;81.69;96641.21;108692;1273;22511;-78
2023/08/09 04:38:26;;;;;;;2.40;2.00;;;;;;;13.59;81.82;96636.70;108684;1273;22535;-78
2023/08/09 04:40:58;;;;;;;2.40;1.60;;;;;;;13.59;81.91;96634.13;108687;1273;22584;-78
2023/08/09 04:43:29;;;;;;;3.00;2.00;;;;;;;13.61;81.81;96641.33;108710;1273;22525;-78
2023/08/09 04:46:01;;;;;;;1.80;1.60;;;;;;;13.65;81.66;96638.34;108668;1269;22522;-78
2023/08/09 04:48:32;;;;;;;1.70;1.30;;;;;;;13.70;81.61;96639.70;108713;1273;23342;-78
2023/08/09 04:51:03;;;;;;;2.40;1.50;;;;;;;13.74;81.61;96641.94;108709;1273;23342;-78
2023/08/09 04:53:34;;;;;;;2.70;1.80;;;;;;;13.78;81.39;96643.67;108727;1273;24145;-78
2023/08/09 04:56:05;;;;;;;3.00;1.90;;;;;;;13.81;81.30;96641.96;108677;1270;24335;-79
2023/08/09 04:58:37;;;;;;;4.20;1.90;;;;;;;13.86;81.16;96649.75;108668;1270;29274;-78
2023/08/09 05:01:08;;;;;;;2.20;1.50;;;;;;;13.89;81.08;96643.03;108729;1273;22522;-78
2023/08/09 05:03:39;;;;;;;1.80;1.40;;;;;;;13.92;81.03;96642.91;108699;1273;24331;-78
2023/08/09 05:06:10;;;;;;;2.00;1.50;;;;;;;13.96;80.87;96640.23;108694;1273;22517;-78
2023/08/09 05:08:41;;;;;;;3.00;1.60;;;;;;;14.02;80.71;96640.77;108705;1271;22518;-78
2023/08/09 05:11:12;;;;;;;1.60;1.20;;;;;;;14.09;80.64;96640.73;108663;1273;22546;-78
2023/08/09 05:13:43;;;;;;;3.00;1.50;;;;;;;14.16;80.57;96641.77;108724;1273;22501;-78
2023/08/09 05:16:14;;;;;;;1.40;1.20;;;;;;;14.25;80.42;96644.23;108671;1269;22515;-78
2023/08/09 05:18:45;;;;;;;1.90;1.50;;;;;;;14.37;80.40;96645.94;108718;1273;22942;-78
2023/08/09 05:21:17;;;;;;;4.30;1.50;;;;;;;14.49;80.30;96651.24;108693;1273;22519;-78
2023/08/09 05:23:48;;;;;;;3.40;1.60;;;;;;;14.62;80.27;96654.20;108717;1273;22585;-78
2023/08/09 05:26:19;;;;;;;2.10;1.50;;;;;;;14.70;80.05;96649.27;108684;1266;22538;-78
2023/08/09 05:28:50;;;;;;;3.20;1.20;;;;;;;14.77;79.94;96647.98;108693;1273;23970;-78
2023/08/09 05:31:21;;;;;;;2.50;1.50;;;;;;;14.88;79.90;96642.27;108716;1270;22534;-78
2023/08/09 05:33:52;;;;;;;3.00;1.60;;;;;;;15.07;79.98;96644.41;108699;1267;24166;-78
2023/08/09 05:36:23;;;;;;;1.80;1.50;;;;;;;15.40;80.15;96644.61;108715;1273;22518;-78
2023/08/09 05:38:54;;;;;;;1.70;1.40;;;;;;;15.89;79.85;96649.99;108673;1273;22530;-78
2023/08/09 05:41:26;;;;;;;1.90;1.30;;;;;;;16.38;78.66;96654.17;108689;1273;22525;-78
2023/08/09 05:43:59;;;;;;;2.20;1.40;;;;;;;16.57;77.35;96648.48;108719;1267;24160;-78
2023/08/09 05:46:30;;;;;;;2.20;1.40;;;;;;;16.45;76.46;96649.67;108701;1273;22545;-78
2023/08/09 05:49:01;;;;;;;2.00;1.60;;;;;;;16.34;76.33;96650.87;108726;1273;25343;-79
2023/08/09 05:51:32;;;;;;;2.70;1.40;;;;;;;16.56;76.31;96653.61;108744;1273;25278;-78
2023/08/09 05:54:07;;;;;;;2.10;1.60;;;;;;;16.84;75.75;96657.58;108698;1266;22514;-78
2023/08/09 05:56:38;;;;;;;2.00;1.50;;;;;;;16.95;75.28;96656.54;108716;1273;22515;-78
2023/08/09 05:59:10;;;;;;;3.70;1.80;;;;;;;17.00;74.81;96660.72;108675;1270;22974;-78
2023/08/09 06:01:41;;;;;;;2.60;1.60;;;;;;;17.31;75.16;96655.60;108696;1273;24231;-78
2023/08/09 06:04:13;;;;;;;2.80;1.50;;;;;;;17.95;74.39;96653.52;108671;1273;22518;-78
2023/08/09 06:06:45;;;;;;;3.10;1.40;;;;;;;18.06;72.81;96651.80;108720;1273;24368;-78
2023/08/09 06:09:16;;;;;;;1.40;1.10;;;;;;;17.85;72.42;96650.05;108717;1273;22616;-78
2023/08/09 06:11:47;;;;;;;2.10;1.40;;;;;;;17.73;72.33;96654.66;108697;1273;22520;-78
2023/08/09 06:14:18;;;;;;;2.40;1.40;;;;;;;17.61;72.10;96657.89;108700;1273;22522;-78
2023/08/09 06:16:51;;;;;;;2.40;1.40;;;;;;;17.45;71.86;96661.86;108677;1270;25532;-78
2023/08/09 06:19:23;;;;;;;2.00;1.30;;;;;;;17.28;71.76;96665.03;108734;1271;22524;-78
2023/08/09 06:21:56;;;;;;;1.90;1.70;;;;;;;17.13;71.81;96660.31;108695;1273;22519;-78
2023/08/09 06:24:27;;;;;;;2.30;1.50;;;;;;;16.95;71.74;96656.56;108696;1251;22518;-79
2023/08/09 06:26:58;;;;;;;1.40;1.20;;;;;;;16.73;71.71;96653.91;108650;1267;22537;-78
2023/08/09 06:29:30;;;;;;;2.50;1.20;;;;;;;16.68;72.00;96652.42;108694;1267;22522;-78
2023/08/09 06:32:03;;;;;;;1.40;1.30;;;;;;;16.69;71.88;96651.67;108776;1267;23818;-79
2023/08/09 06:34:35;;;;;;;3.10;1.30;;;;;;;16.68;71.86;96647.33;108719;1273;24576;-79
2023/08/09 06:37:07;;;;;;;2.50;1.50;;;;;;;16.72;71.89;96649.88;108695;1265;22536;-79
2023/08/09 06:39:39;;;;;;;2.10;1.30;;;;;;;16.86;71.95;96647.88;108687;1273;22523;-79
2023/08/09 06:42:13;;;;;;;2.10;1.30;;;;;;;16.98;71.44;96649.54;108677;1267;23094;-78
2023/08/09 06:44:44;;;;;;;3.60;1.50;;;;;;;17.29;71.63;96641.04;108684;1268;22529;-78
2023/08/09 06:47:17;;;;;;;5.80;2.10;;;;;;;17.56;71.47;96638.98;108691;1269;26277;-78
2023/08/09 06:49:48;;;;;;;3.40;1.40;;;;;;;17.83;71.01;96643.45;108714;1273;23831;-79
2023/08/09 06:52:21;;;;;;;2.30;1.60;;;;;;;18.25;70.81;96643.48;108701;1273;25362;-78
2023/08/09 06:54:52;;;;;;;2.00;1.60;;;;;;;18.70;70.19;96641.77;108705;1273;22522;-78
2023/08/09 06:57:24;;;;;;;2.30;1.50;;;;;;;19.26;69.43;96642.19;108697;1267;22555;-78
2023/08/09 06:59:56;;;;;;;2.70;1.40;;;;;;;19.86;68.64;96643.30;108646;1273;22547;-78
2023/08/09 07:02:27;;;;;;;2.80;1.40;;;;;;;20.56;68.00;96648.27;108707;1269;22523;-78
2023/08/09 07:05:14;;;;;;;3.20;1.50;;;;;;;21.43;66.93;96644.77;108709;1273;22515;-78
2023/08/09 07:07:47;;;;;;;2.80;1.60;;;;;;;22.18;65.07;96644.33;108656;1273;22541;-78
2023/08/09 07:10:19;;;;;;;1.70;1.50;;;;;;;22.42;63.13;96643.32;108706;1267;25870;-79
2023/08/09 07:12:50;;;;;;;2.10;1.40;;;;;;;22.41;62.08;96650.33;108690;1268;22637;-79
2023/08/09 07:15:22;;;;;;;2.40;1.50;;;;;;;22.11;61.21;96649.57;108696;1273;24464;-78
2023/08/09 07:17:53;;;;;;;1.90;1.60;;;;;;;21.45;60.67;96644.90;108695;1273;22656;-78
2023/08/09 07:20:25;;;;;;;2.00;1.20;;;;;;;20.90;61.09;96647.52;108733;1270;22528;-78
2023/08/09 07:22:58;;;;;;;2.90;1.20;;;;;;;20.45;61.32;96656.63;108696;1273;25308;-78
2023/08/09 07:25:29;;;;;;;2.20;1.40;;;;;;;20.04;61.69;96648.30;108717;1273;27498;-78
2023/08/09 07:28:05;;;;;;;1.80;1.50;;;;;;;20.54;62.55;96650.73;108629;1269;22535;-78
2023/08/09 07:30:36;;;;;;;2.60;1.60;;;;;;;21.34;62.38;96647.08;108698;1273;22525;-79
2023/08/09 07:33:07;;;;;;;3.70;1.40;;;;;;;22.04;61.63;96647.48;108648;1267;22548;-78
2023/08/09 07:35:38;;;;;;;1.50;1.30;;;;;;;22.68;60.78;96641.92;108642;1267;22541;-78
2023/08/09 07:38:11;;;;;;;2.20;1.60;;;;;;;23.12;59.75;96645.27;108689;1273;25233;-79
2023/08/09 07:40:42;;;;;;;2.20;1.50;;;;;;;23.44;58.87;96639.42;108694;1273;25503;-79
2023/08/09 07:43:14;;;;;;;1.80;1.50;;;;;;;23.51;57.95;96646.05;108681;1270;22509;-78
2023/08/09 07:45:48;;;;;;;2.50;1.60;;;;;;;23.57;57.01;96640.83;108693;1273;22525;-78
2023/08/09 07:48:20;;;;;;;2.80;1.60;;;;;;;23.47;56.19;96643.58;108670;1266;24209;-78
2023/08/09 07:50:51;;;;;;;2.70;1.70;;;;;;;23.35;56.30;96640.42;108726;1270;22521;-79
2023/08/09 07:53:23;;;;;;;1.80;1.60;;;;;;;23.36;56.29;96638.98;108705;1268;22549;-79
2023/08/09 07:55:54;;;;;;;3.00;1.30;;;;;;;23.52;56.06;96636.95;108720;1267;22537;-80
2023/08/09 07:58:26;;;;;;;1.70;1.60;;;;;;;23.61;55.61;96632.39;108675;1267;25578;-79
2023/08/09 08:00:57;;;;;;;2.40;1.70;;;;;;;23.58;55.07;96634.21;108692;1267;22540;-79
2023/08/09 08:03:29;;;;;;;2.40;1.50;;;;;;;23.82;55.19;96634.75;108689;1273;22631;-78
2023/08/09 08:06:01;;;;;;;3.00;1.50;;;;;;;23.93;54.32;96631.42;108735;1267;22514;-80
2023/08/09 08:08:32;;;;;;;1.40;1.20;;;;;;;23.71;53.83;96630.00;108714;1273;25316;-79
2023/08/09 08:11:05;;;;;;;2.50;1.60;;;;;;;23.78;53.75;96633.83;108733;1270;22521;-79
2023/08/09 08:13:37;;;;;;;2.30;1.50;;;;;;;23.58;53.23;96629.63;108738;1273;25481;-78
2023/08/09 08:16:09;;;;;;;2.00;1.40;;;;;;;23.22;53.01;96631.22;108713;1270;24231;-79
2023/08/09 08:18:43;;;;;;;2.20;1.30;;;;;;;22.67;52.54;96631.48;108632;1273;22544;-79
2023/08/09 08:21:19;;;;;;;3.00;1.50;;;;;;;21.97;52.56;96632.96;108713;1267;22527;-79
2023/08/09 08:23:50;;;;;;;2.50;1.30;;;;;;;21.79;53.92;96632.30;108695;1267;22514;-79
2023/08/09 08:26:25;;;;;;;2.30;1.30;;;;;;;21.85;54.03;96635.10;108681;1270;22535;-79
2023/08/09 08:28:56;;;;;;;2.30;1.40;;;;;;;21.76;54.05;96633.70;108696;1274;25412;-79
2023/08/09 08:31:32;;;;;;;3.30;1.60;;;;;;;21.34;53.76;96634.66;108763;1270;22535;-79
2023/08/09 08:34:03;;;;;;;2.60;1.80;;;;;;;21.15;54.63;96639.13;108646;1267;24242;-80
2023/08/09 08:36:35;;;;;;;2.90;1.40;;;;;;;20.95;54.38;96635.52;108764;1267;22523;-80
2023/08/09 08:39:14;;;;;;;3.30;1.80;;;;;;;20.93;54.96;96635.90;108828;1269;22536;-80
2023/08/09 08:41:49;;;;;;;2.60;1.50;;;;;;;20.85;54.71;96635.14;108836;1267;22536;-80
2023/08/09 08:44:23;;;;;;;2.20;1.10;;;;;;;20.59;53.81;96631.27;108871;1270;25387;-80
2023/08/09 08:46:55;;;;;;;2.20;1.50;;;;;;;20.29;54.00;96636.36;108780;1274;24224;-81
2023/08/09 08:49:32;;;;;;;1.10;1.00;;;;;;;20.21;54.03;96637.43;108756;1267;22525;-80
2023/08/09 08:52:07;;;;;;;1.70;1.30;;;;;;;20.25;54.51;96631.41;108611;1274;204503;-81
2023/08/09 08:54:42;;;;;;;2.20;1.50;;;;;;;20.25;54.37;96629.34;108774;1274;22515;-81
2023/08/09 08:57:14;;;;;;;3.10;1.20;;;;;;;20.29;54.91;96629.21;108778;1273;22588;-79
2023/08/09 08:59:45;;;;;;;2.70;1.30;;;;;;;20.25;54.21;96636.70;108837;1256;22534;-80
2023/08/09 09:02:16;;;;;;;2.80;1.20;;;;;;;20.30;54.95;96631.40;108750;1273;22515;-81
2023/08/09 09:04:48;;;;;;;2.10;1.40;;;;;;;20.49;55.16;96630.76;108801;1273;22537;-81
2023/08/09 09:07:20;;;;;;;3.10;1.50;;;;;;;20.56;54.35;96627.73;108772;1270;22530;-81
2023/08/09 09:10:02;;;;;;;3.10;1.40;;;;;;;20.55;54.00;96625.85;108793;1273;22609;-81
2023/08/09 09:12:36;;;;;;;2.10;1.20;;;;;;;20.36;53.12;96629.29;108792;1268;22530;-81
2023/08/09 09:15:09;;;;;;;1.60;1.10;;;;;;;20.12;53.02;96633.27;108737;1270;25411;-82
2023/08/09 09:17:44;;;;;;;2.20;1.00;;;;;;;20.07;53.21;96628.72;108712;1267;25354;-80
2023/08/09 09:20:23;;;;;;;2.20;1.60;;;;;;;20.05;53.06;96626.91;108749;1273;24387;-80
2023/08/09 09:23:01;;;;;;;3.30;1.40;;;;;;;20.12;53.54;96621.95;108717;1273;22680;-80
2023/08/09 09:25:34;;;;;;;3.00;1.70;;;;;;;20.10;53.12;96630.99;108706;1267;25233;-81
2023/08/09 09:28:07;;;;;;;2.40;1.10;;;;;;;20.09;53.65;96627.71;108751;1266;22522;-80
2023/08/09 09:30:38;;;;;;;1.40;1.20;;;;;;;20.08;53.34;96624.59;108763;1266;23005;-81
2023/08/09 09:33:10;;;;;;;2.20;1.30;;;;;;;19.96;53.18;96619.48;108714;1273;24304;-81
2023/08/09 09:35:43;;;;;;;1.70;1.00;;;;;;;19.84;53.31;96625.86;108669;1273;22520;-81
2023/08/09 09:38:15;;;;;;;3.10;1.40;;;;;;;19.83;53.58;96618.98;108693;1273;22511;-79
2023/08/09 09:40:50;;;;;;;3.60;1.20;;;;;;;19.81;53.43;96614.46;108732;1273;24501;-80
2023/08/09 09:43:21;;;;;;;1.50;1.20;;;;;;;19.81;53.22;96607.79;108764;1273;22542;-80
2023/08/09 09:45:56;;;;;;;3.20;1.30;;;;;;;19.75;52.96;96612.77;108701;1267;22518;-80
2023/08/09 09:48:29;;;;;;;3.70;1.40;;;;;;;19.73;53.04;96610.69;108745;1273;22518;-80
2023/08/09 09:51:02;;;;;;;2.20;1.30;;;;;;;19.79;53.38;96610.25;108679;1273;22534;-80
2023/08/09 09:53:37;;;;;;;1.90;1.30;;;;;;;19.85;52.85;96615.52;108712;1273;22518;-80
2023/08/09 09:56:09;;;;;;;2.20;1.80;;;;;;;19.82;52.42;96607.35;108733;1269;25440;-80
2023/08/09 09:58:45;;;;;;;2.10;1.30;;;;;;;19.76;52.33;96607.17;108664;1273;22586;-80
2023/08/09 10:01:20;;;;;;;3.60;1.60;;;;;;;19.68;52.12;96605.39;108746;1267;22507;-80
2023/08/09 10:04:06;;;;;;;1.60;1.20;;;;;;;19.70;52.63;96606.54;108707;1273;25256;-80
2023/08/09 10:06:42;;;;;;;2.90;1.30;;;;;;;19.68;52.36;96602.23;108735;1273;22517;-80
2023/08/09 10:09:19;;;;;;;3.30;1.70;;;;;;;19.61;52.38;96607.39;108715;1274;23256;-80
2023/08/09 10:11:53;;;;;;;1.90;1.20;;;;;;;19.57;52.84;96602.20;108657;1270;25234;-80
2023/08/09 10:14:26;;;;;;;2.00;1.10;;;;;;;19.59;52.99;96600.19;108653;1262;23073;-80
2023/08/09 10:16:59;;;;;;;2.10;1.20;;;;;;;19.53;52.68;96601.05;108623;1274;22521;-80
2023/08/09 10:19:32;;;;;;;4.00;1.40;;;;;;;19.49;52.94;96605.16;108657;1267;25287;-80
2023/08/09 10:22:05;;;;;;;3.00;1.70;;;;;;;19.51;52.51;96601.15;108664;1274;22534;-80
2023/08/09 10:24:47;;;;;;;2.00;1.20;;;;;;;19.49;52.73;96601.22;108646;1269;22544;-80
2023/08/09 10:27:50;;;;;;;1.40;1.10;;;;;;;19.42;52.32;96601.23;108693;1274;22521;-80
2023/08/09 10:30:29;;;;;;;1.80;1.10;;;;;;;19.33;52.67;96601.95;108710;1267;22521;-80
2023/08/09 10:33:02;;;;;;;1.70;1.30;;;;;;;19.28;52.76;96600.10;108697;1267;22647;-79
2023/08/09 10:35:51;;;;;;;1.60;1.10;;;;;;;19.23;52.57;96596.61;108722;1269;22561;-79
2023/08/09 10:38:39;;;;;;;2.70;1.40;;;;;;;19.20;52.65;96593.68;108694;1270;25323;-79
2023/08/09 10:41:13;;;;;;;1.00;1.00;;;;;;;19.28;53.16;96599.00;108690;1273;22524;-80
2023/08/09 10:43:45;;;;;;;2.00;1.10;;;;;;;19.43;53.32;96595.34;108694;1269;22514;-79
2023/08/09 10:46:27;;;;;;;2.20;1.30;;;;;;;19.53;53.34;96594.61;108700;1273;22631;-79
2023/08/09 10:49:03;;;;;;;3.40;1.70;;;;;;;19.62;53.61;96600.13;108699;1273;25398;-79
2023/08/09 10:51:34;;;;;;;2.20;1.40;;;;;;;19.78;54.16;96598.84;108736;1266;22516;-79
2023/08/09 10:54:09;;;;;;;1.50;1.30;;;;;;;19.85;53.66;96594.09;108653;1273;22518;-80
2023/08/09 10:56:49;;;;;;;1.80;1.20;;;;;;;19.86;53.55;96595.60;108707;1273;22514;-80
2023/08/09 10:59:24;;;;;;;;;;;;;;;19.90;53.75;96598.52;108677;1273;22488;-79
2023/08/09 11:01:55;;;;;;;1.90;1.30;;;;;;;20.04;54.24;96592.95;108704;1273;22518;-79
2023/08/09 11:04:27;;;;;;;2.50;1.40;;;;;;;20.11;54.03;96592.55;108678;1273;22583;-79
2023/08/09 11:06:59;;;;;;;2.70;1.60;;;;;;;20.11;54.00;96594.53;108669;1273;22708;-79
2023/08/09 11:09:31;;;;;;;2.00;1.30;;;;;;;20.09;54.16;96593.51;108672;1273;25325;-79
2023/08/09 11:12:06;;;;;;;1.90;1.50;;;;;;;20.04;53.94;96589.27;108701;1273;22514;-79
2023/08/09 11:14:40;;;;;;;2.50;1.60;;;;;;;20.00;54.47;96591.32;108705;1267;22532;-79
2023/08/09 11:17:16;;;;;;;3.00;1.50;;;;;;;20.01;54.38;96588.20;108686;1266;22520;-79
2023/08/09 11:19:47;;;;;;;1.50;1.10;;;;;;;19.99;54.04;96579.67;108698;1273;22519;-79
2023/08/09 11:22:18;;;;;;;2.10;1.40;;;;;;;19.92;53.73;96580.54;108724;1266;22514;-79
2023/08/09 11:24:51;;;;;;;2.10;1.40;;;;;;;19.88;53.26;96573.64;108735;1265;22983;-79
2023/08/09 11:27:23;;;;;;;1.70;1.00;;;;;;;19.86;53.74;96576.73;108654;1272;24209;-79
2023/08/09 11:29:55;;;;;;;2.40;1.20;;;;;;;19.85;53.54;96582.10;108671;1273;25401;-79
2023/08/09 11:32:31;;;;;;;3.30;1.40;;;;;;;19.86;53.90;96585.35;108680;1273;25376;-79
2023/08/09 11:35:03;;;;;;;1.60;1.20;;;;;;;19.85;54.07;96582.39;108693;1250;22520;-79
2023/08/09 11:37:34;;;;;;;2.40;1.20;;;;;;;19.74;54.22;96587.13;108667;1273;25356;-79
2023/08/09 11:40:06;;;;;;;3.60;1.70;;;;;;;19.64;54.60;96592.80;108675;1273;25369;-79
2023/08/09 11:42:37;;;;;;;1.70;1.10;;;;;;;19.63;55.21;96584.94;108700;1266;22515;-79
2023/08/09 11:45:10;;;;;;;1.60;1.40;;;;;;;19.67;55.60;96587.14;108683;1266;22524;-79
2023/08/09 11:47:54;;;;;;;3.40;1.70;;;;;;;19.75;56.23;96591.54;108717;1273;24236;-79
2023/08/09 11:50:26;;;;;;;2.20;1.50;;;;;;;19.89;56.38;96593.88;108670;1269;24126;-79